| Record Date MM/DD/YYYY | Record Time HH:MM:SS | Record Julian Date NNN day of the year | Air Temperature Max (Degrees Fahrenheit F) | Time Max Air Temperature HH:MM:SS This is the time of max air temp for the prior hour interval listed for record [Time]. | Air Temperature Min (Degrees Fahrenheit F) | Time Min Air Temperature HH:MM:SS This is the time of min air temp for the prior hour interval listed for record [Time]. | Air Temperature Observed (Degrees Fahrenheit F) This is an instantaneous reading at the record [Time]. | Relative Humidity Max (Percent) | Time Max Relative Humidity HH:MM:SS This is the time of max relative humidity for the prior hour interval listed for record [Time]. | Relative Humidity Min (Percent) | Time Min Relative Humidity HH:MM:SS This is the time of min relative humidity for the prior hour interval listed for record [Time]. | Relative Humidity Observed (Percent) This is an instantaneous reading at the record [Time]. | Precipitation (Inches n.nn) rain fall that occurred during the prior hour interval listed for record [Time]. | Wind Speed (Miles Per Hour) Resultant Speed that occurred during the prior hour interval listed for record [Time]. | Wind Direction (Degrees) Resultant Direction that occurred during the prior hour interval listed for record [Time]. | Solar Radiation (Langley's) that occurred during the prior hour interval listed for record [Time]. | Soil Temperature Average at 2 inch depth (Degrees Fahrenheit F) that occurred during the prior hour interval listed for record [Time]. | Soil Temperature Observed at 2 inch depth (Degrees Fahrenheit F) This is an instantaneous reading at the record [Time]. | Soil Temperature Average at 4 inch depth (Degrees Fahrenheit F) that occurred during the prior hour interval listed for record [Time]. | Soil Temperature Observed at 4 inch depth (Degrees Fahrenheit F) This is an instantaneous reading at the record [Time]. |
|---|---|---|---|---|---|---|---|---|---|---|---|---|---|---|---|---|---|---|---|---|
| 04/30/2026 | 0:00:00 | 120 | 62 | 23:10:01 | 61 | 23:55:05 | 61 | 80 | 23:01:01 | 73 | 23:34:02 | 75.11 | 0.01 | |||||||
| 04/30/2026 | 1:00:00 | 120 | 62 | 0:01:04 | 60 | 0:54:03 | 61 | 76 | 0:19:04 | 73 | 0:46:00 | 73.86 | 0.01 | |||||||
| 04/30/2026 | 2:00:00 | 120 | 61 | 1:03:00 | 59 | 1:55:02 | 59 | 78 | 1:53:00 | 73 | 1:05:02 | 77.34 | 0.01 | |||||||
| 04/30/2026 | 3:00:00 | 120 | 59 | 2:01:00 | 58 | 2:32:05 | 58 | 80 | 2:08:02 | 76 | 2:54:00 | 77.85 | 0.01 | |||||||
| 04/30/2026 | 4:00:00 | 120 | 58 | 3:05:02 | 57 | 3:56:01 | 57 | 78 | 3:00:03 | 75 | 3:47:03 | 75.41 | 0 | |||||||
| 04/30/2026 | 5:00:00 | 120 | 57 | 4:00:01 | 55 | 4:58:01 | 55 | 79 | 4:57:05 | 75 | 4:01:04 | 77.49 | 0.01 | |||||||
| 04/30/2026 | 6:00:00 | 120 | 56 | 5:50:03 | 55 | 5:36:00 | 56 | 78 | 5:02:04 | 74 | 5:49:05 | 77.09 | 0.01 | |||||||
| 04/30/2026 | 7:00:00 | 120 | 57 | 6:09:01 | 56 | 6:00:05 | 57 | 77 | 6:00:01 | 71 | 6:56:05 | 72.97 | 0.01 | |||||||
| 04/30/2026 | 8:00:00 | 120 | 59 | 7:58:01 | 57 | 7:01:01 | 59 | 74 | 7:00:04 | 64 | 7:58:04 | 64.13 | 0.01 | |||||||
| 04/30/2026 | 9:00:00 | 120 | 63 | 8:43:00 | 59 | 8:00:01 | 62 | 68 | 8:00:04 | 56 | 8:59:05 | 56.86 | 0.01 | |||||||
| 04/30/2026 | 10:00:00 | 120 | 64 | 9:44:05 | 62 | 9:01:01 | 64 | 62 | 9:23:05 | 49 | 9:58:02 | 52.4 | 0.01 | |||||||
| 04/30/2026 | 11:00:00 | 120 | 66 | 10:52:03 | 63 | 10:09:01 | 66 | 59 | 10:15:04 | 48 | 10:59:03 | 52.45 | 0.02 | |||||||
| 04/30/2026 | 12:00:00 | 120 | 68 | 11:47:02 | 66 | 11:27:03 | 67 | 55 | 11:16:04 | 44 | 11:49:00 | 50.29 | 0.01 | |||||||
| 04/30/2026 | 13:00:00 | 120 | 69 | 12:44:02 | 66 | 12:08:02 | 68 | 57 | 12:17:05 | 42 | 12:36:05 | 47.72 | 0.01 | |||||||
| 04/30/2026 | 14:00:00 | 120 | 69 | 13:24:05 | 67 | 13:54:05 | 68 | 52 | 13:09:04 | 42 | 13:21:03 | 49.83 | 0.01 | |||||||
| 04/30/2026 | 15:00:00 | 120 | 69 | 14:01:05 | 67 | 14:58:04 | 67 | 51 | 14:47:02 | 42 | 14:05:05 | 49.23 | 0.01 | |||||||
| 04/30/2026 | 16:00:00 | 120 | 67 | 15:05:02 | 65 | 15:49:05 | 66 | 54 | 15:30:00 | 45 | 15:01:00 | 50.59 | 0 | |||||||
| 04/30/2026 | 17:00:00 | 120 | 66 | 16:06:02 | 64 | 16:58:05 | 64 | 55 | 16:25:04 | 47 | 16:01:04 | 54.79 | 0.01 | |||||||
| 04/30/2026 | 18:00:00 | 120 | 64 | 17:00:02 | 63 | 17:59:04 | 63 | 58 | 17:16:05 | 50 | 17:33:05 | 53.85 | 0.01 | |||||||
| 04/30/2026 | 19:00:00 | 120 | 63 | 18:00:01 | 58 | 18:59:01 | 58 | 79 | 18:59:05 | 51 | 18:07:04 | 78.47 | 0 | |||||||
| 04/30/2026 | 20:00:00 | 120 | 58 | 19:00:02 | 56 | 19:59:05 | 56 | 85 | 19:35:03 | 76 | 19:01:02 | 81.9 | 0.01 | |||||||
| 04/30/2026 | 21:00:00 | 120 | 56 | 20:02:02 | 55 | 20:30:02 | 55 | 88 | 20:58:04 | 82 | 20:00:01 | 87.1 | 0 | |||||||
| 04/30/2026 | 22:00:00 | 120 | 55 | 21:02:00 | 53 | 21:59:05 | 53 | 92 | 21:58:00 | 86 | 21:05:01 | 91.7 | 0 | |||||||
| 04/30/2026 | 23:00:00 | 120 | 53 | 22:00:01 | 51 | 22:40:01 | 52 | 96 | 22:58:00 | 92 | 22:00:03 | 95.6 | 0.01 | |||||||
| 05/01/2026 | 0:00:00 | 121 | 52 | 23:28:01 | 51 | 23:08:02 | 51 | 96 | 23:22:01 | 95 | 23:49:01 | 95.6 | 0 | |||||||
| 05/01/2026 | 1:00:00 | 121 | 51 | 0:00:01 | 50 | 0:46:01 | 50 | 98 | 0:56:05 | 96 | 0:00:01 | 97.6 | 0 | |||||||
| 05/01/2026 | 2:00:00 | 121 | 50 | 1:00:01 | 49 | 1:51:02 | 49 | 99 | 1:55:05 | 98 | 1:00:05 | 98.6 | 0 | |||||||
| 05/01/2026 | 3:00:00 | 121 | 49 | 2:55:04 | 49 | 2:30:04 | 49 | 99 | 2:53:01 | 99 | 2:00:01 | 98.9 | 0.01 | |||||||
| 05/01/2026 | 4:00:00 | 121 | 50 | 3:04:02 | 49 | 3:12:05 | 49 | 99 | 3:48:03 | 99 | 3:06:04 | 99 | 0 | |||||||
| 05/01/2026 | 5:00:00 | 121 | 50 | 4:55:00 | 49 | 4:00:03 | 50 | 99 | 4:24:01 | 99 | 4:59:01 | 98.9 | 0 | |||||||
| 05/01/2026 | 6:00:00 | 121 | 51 | 5:59:00 | 50 | 5:03:05 | 51 | 99 | 5:40:05 | 98 | 6:00:00 | 97.5 | 0.01 | |||||||
| 05/01/2026 | 7:00:00 | 121 | 56 | 6:59:05 | 51 | 6:00:01 | 56 | 98 | 6:00:05 | 85 | 6:59:00 | 85.4 | 0 | |||||||
| 05/01/2026 | 8:00:00 | 121 | 60 | 7:54:05 | 56 | 7:00:05 | 60 | 86 | 7:00:03 | 68 | 7:55:04 | 71.69 | 0 | |||||||
| 05/01/2026 | 9:00:00 | 121 | 64 | 8:59:04 | 60 | 8:07:01 | 63 | 73 | 8:00:03 | 63 | 8:59:00 | 63.51 | 0 | |||||||
| 05/01/2026 | 10:00:00 | 121 | 65 | 9:57:04 | 63 | 9:00:05 | 65 | 68 | 9:06:02 | 57 | 9:58:01 | 59.86 | 0.01 | |||||||
| 05/01/2026 | 11:00:00 | 121 | 65 | 10:24:05 | 64 | 10:05:02 | 65 | 62 | 10:02:04 | 49 | 10:38:01 | 52.71 | 0 | |||||||
| 05/01/2026 | 12:00:00 | 121 | 66 | 11:52:03 | 65 | 11:42:05 | 65 | 55 | 11:06:00 | 46 | 11:29:04 | 49.48 | 0 | |||||||
| 05/01/2026 | 13:00:00 | 121 | 67 | 12:42:04 | 65 | 12:01:00 | 66 | 55 | 12:51:00 | 45 | 12:35:05 | 48.63 | 0 | |||||||
| 05/01/2026 | 14:00:00 | 121 | 68 | 13:13:04 | 66 | 13:00:01 | 67 | 55 | 13:01:05 | 44 | 13:59:05 | 45.5 | 0 | |||||||
| 05/01/2026 | 15:00:00 | 121 | 68 | 14:40:04 | 66 | 14:22:00 | 66 | 51 | 14:51:05 | 43 | 14:09:03 | 46.11 | 0 | |||||||
| 05/01/2026 | 16:00:00 | 121 | 68 | 15:39:00 | 66 | 16:00:00 | 66 | 55 | 15:54:02 | 45 | 15:00:02 | 51.03 | 0 | |||||||
| 05/01/2026 | 17:00:00 | 121 | 67 | 16:11:00 | 65 | 16:59:05 | 65 | 53 | 16:02:01 | 45 | 16:37:05 | 50.93 | 0 | |||||||
| 05/01/2026 | 18:00:00 | 121 | 65 | 17:00:02 | 63 | 18:00:00 | 63 | 51 | 17:06:04 | 44 | 17:39:05 | 50.99 | 0 | |||||||
| 05/01/2026 | 19:00:00 | 121 | 63 | 18:00:02 | 58 | 18:59:00 | 58 | 78 | 18:50:04 | 48 | 18:01:00 | 76.15 | 0 | |||||||
| 05/01/2026 | 20:00:00 | 121 | 58 | 19:01:00 | 55 | 19:52:05 | 55 | 85 | 19:33:00 | 77 | 19:00:01 | 84.5 | 0 | |||||||
| 05/01/2026 | 21:00:00 | 121 | 57 | 20:59:05 | 54 | 20:20:04 | 57 | 87 | 20:40:01 | 71 | 21:00:00 | 70.79 | 0 | |||||||
| 05/01/2026 | 22:00:00 | 121 | 57 | 21:06:00 | 55 | 21:57:00 | 55 | 84 | 21:59:05 | 65 | 21:28:05 | 83.5 | 0 | |||||||
| 05/01/2026 | 23:00:00 | 121 | 54 | 22:00:01 | 53 | 22:55:00 | 53 | 87 | 22:41:00 | 79 | 22:24:03 | 82.7 | 0 | |||||||
| 05/02/2026 | 0:00:00 | 122 | 56 | 0:00:00 | 53 | 23:02:04 | 56 | 84 | 23:01:02 | 56 | 23:59:05 | 56.7 | 0 | |||||||
| 05/02/2026 | 1:00:00 | 122 | 57 | 0:00:04 | 55 | 0:59:05 | 55 | 64 | 0:57:03 | 57 | 0:00:01 | 62.71 | 0 | |||||||
| 05/02/2026 | 2:00:00 | 122 | 55 | 1:00:01 | 48 | 1:59:05 | 48 | 88 | 1:54:01 | 63 | 1:00:01 | 86.4 | 0 | |||||||
| 05/02/2026 | 3:00:00 | 122 | 48 | 2:00:01 | 46 | 3:00:00 | 46 | 96 | 2:55:05 | 86 | 2:00:01 | 95.3 | 0 | |||||||
| 05/02/2026 | 4:00:00 | 122 | 46 | 3:00:01 | 44 | 4:00:00 | 44 | 97 | 3:55:05 | 95 | 3:04:04 | 97.1 | 0 | |||||||
| 05/02/2026 | 5:00:00 | 122 | 44 | 4:00:01 | 43 | 5:00:00 | 43 | 98 | 4:59:00 | 97 | 4:01:02 | 98.2 | 0 | |||||||
| 05/02/2026 | 6:00:00 | 122 | 47 | 5:49:03 | 43 | 5:10:03 | 47 | 99 | 5:34:02 | 96 | 6:00:00 | 95.6 | 0 | |||||||
| 05/02/2026 | 7:00:00 | 122 | 57 | 6:54:05 | 46 | 6:18:04 | 56 | 96 | 6:20:01 | 75 | 6:58:04 | 75.71 | 0 | |||||||
| 05/02/2026 | 8:00:00 | 122 | 64 | 7:56:05 | 56 | 7:01:02 | 62 | 77 | 7:02:04 | 51 | 7:59:02 | 53.57 | 0 | |||||||
| 05/02/2026 | 9:00:00 | 122 | 67 | 9:00:00 | 62 | 8:31:04 | 67 | 58 | 8:29:04 | 38 | 8:57:00 | 41.98 | 0 | |||||||
| 05/02/2026 | 10:00:00 | 122 | 69 | 9:10:01 | 66 | 9:26:05 | 67 | 48 | 9:21:05 | 37 | 9:57:04 | 43.9 | 0 | |||||||
| 05/02/2026 | 11:00:00 | 122 | 69 | 10:57:04 | 67 | 10:18:05 | 68 | 47 | 10:40:00 | 34 | 10:48:05 | 41.23 | 0 | |||||||
| 05/02/2026 | 12:00:00 | 122 | 70 | 11:27:02 | 67 | 11:34:03 | 70 | 48 | 11:55:00 | 36 | 11:05:01 | 37.76 | 0 | |||||||
| 05/02/2026 | 13:00:00 | 122 | 72 | 12:52:03 | 69 | 12:07:03 | 70 | 43 | 12:08:02 | 33 | 12:17:04 | 41.06 | 0 | |||||||
| 05/02/2026 | 14:00:00 | 122 | 73 | 13:36:05 | 69 | 13:20:04 | 70 | 42 | 13:02:02 | 33 | 13:09:00 | 35.58 | 0 | |||||||
| 05/02/2026 | 15:00:00 | 122 | 73 | 14:18:03 | 69 | 14:55:00 | 70 | 43 | 14:04:04 | 32 | 14:41:05 | 37.62 | 0 | |||||||
| 05/02/2026 | 16:00:00 | 122 | 72 | 15:46:01 | 69 | 15:02:02 | 71 | 40 | 15:00:04 | 31 | 15:37:05 | 33.96 | 0 | |||||||
| 05/02/2026 | 17:00:00 | 122 | 72 | 16:10:01 | 69 | 16:50:00 | 70 | 39 | 16:40:04 | 32 | 16:12:04 | 37.57 | 0 | |||||||
| 05/02/2026 | 18:00:00 | 122 | 70 | 17:05:00 | 68 | 17:19:03 | 69 | 41 | 17:19:00 | 34 | 17:49:01 | 37.19 | 0 | |||||||
| 05/02/2026 | 19:00:00 | 122 | 69 | 18:00:01 | 64 | 18:59:03 | 64 | 46 | 18:58:05 | 36 | 18:02:05 | 45.43 | 0 | |||||||
| 05/02/2026 | 20:00:00 | 122 | 64 | 19:00:01 | 55 | 20:00:00 | 55 | 78 | 19:59:02 | 45 | 19:01:00 | 76.87 | 0 | |||||||
| 05/02/2026 | 21:00:00 | 122 | 55 | 20:00:04 | 52 | 20:56:00 | 52 | 84 | 21:00:00 | 74 | 20:09:02 | 83.6 | 0 | |||||||
| 05/02/2026 | 22:00:00 | 122 | 57 | 21:53:05 | 50 | 21:33:04 | 57 | 88 | 21:08:02 | 59 | 21:52:03 | 60.62 | 0 | |||||||
| 05/02/2026 | 23:00:00 | 122 | 57 | 22:14:01 | 55 | 22:55:02 | 55 | 67 | 22:55:01 | 59 | 22:13:05 | 66.23 | 0 | |||||||
| 05/03/2026 | 0:00:00 | 123 | 55 | 23:00:02 | 49 | 23:59:04 | 49 | 89 | 0:00:00 | 66 | 23:02:02 | 88.5 | 0 | |||||||
| 05/03/2026 | 1:00:00 | 123 | 49 | 0:00:01 | 46 | 1:00:00 | 46 | 94 | 1:00:00 | 89 | 0:00:01 | 94.3 | 0 | |||||||
| 05/03/2026 | 2:00:00 | 123 | 46 | 1:00:01 | 45 | 1:57:05 | 45 | 97 | 1:59:05 | 94 | 1:00:02 | 96.8 | 0 | |||||||
| 05/03/2026 | 3:00:00 | 123 | 45 | 2:00:03 | 43 | 2:59:04 | 43 | 98 | 3:00:00 | 97 | 2:00:02 | 97.9 | 0 | |||||||
| 05/03/2026 | 4:00:00 | 123 | 43 | 3:00:02 | 42 | 3:59:01 | 42 | 99 | 3:49:00 | 98 | 3:00:03 | 98.5 | 0 | |||||||
| 05/03/2026 | 5:00:00 | 123 | 42 | 4:03:03 | 41 | 4:53:00 | 42 | 99 | 4:56:03 | 99 | 4:00:03 | 99 | 0 | |||||||
| 05/03/2026 | 6:00:00 | 123 | 48 | 5:58:02 | 41 | 5:13:01 | 47 | 99 | 5:34:01 | 96 | 6:00:00 | 96.2 | 0 | |||||||
| 05/03/2026 | 7:00:00 | 123 | 56 | 6:59:01 | 47 | 6:00:03 | 55 | 96 | 6:01:01 | 74 | 7:00:00 | 74.4 | 0 | |||||||
| 05/03/2026 | 8:00:00 | 123 | 61 | 7:59:01 | 55 | 7:00:02 | 61 | 77 | 7:02:03 | 58 | 7:56:01 | 60.13 | 0 | |||||||
| 05/03/2026 | 9:00:00 | 123 | 65 | 8:58:03 | 61 | 8:07:04 | 65 | 62 | 8:01:03 | 49 | 8:58:00 | 53.09 | 0 | |||||||
| 05/03/2026 | 10:00:00 | 123 | 68 | 9:59:02 | 65 | 9:00:01 | 68 | 53 | 9:00:04 | 42 | 9:59:05 | 42.08 | 0 | |||||||
| 05/03/2026 | 11:00:00 | 123 | 71 | 10:55:03 | 68 | 10:01:03 | 70 | 50 | 10:33:02 | 37 | 10:50:04 | 40.27 | 0 | |||||||
| 05/03/2026 | 12:00:00 | 123 | 73 | 11:55:04 | 69 | 11:06:05 | 71 | 46 | 11:14:01 | 34 | 11:59:05 | 35.65 | 0 | |||||||
| 05/03/2026 | 13:00:00 | 123 | 74 | 12:47:02 | 70 | 12:00:02 | 72 | 43 | 12:09:04 | 32 | 12:49:04 | 33.95 | 0 | |||||||
| 05/03/2026 | 14:00:00 | 123 | 76 | 13:55:02 | 72 | 13:00:04 | 75 | 40 | 13:02:03 | 31 | 13:15:01 | 38.58 | 0 | |||||||
| 05/03/2026 | 15:00:00 | 123 | 76 | 14:59:03 | 74 | 14:25:04 | 76 | 39 | 14:00:01 | 30 | 14:13:02 | 30.19 | 0 | |||||||
| 05/03/2026 | 16:00:00 | 123 | 78 | 15:58:00 | 75 | 15:15:02 | 77 | 37 | 15:38:03 | 29 | 15:03:03 | 33.05 | 0 | |||||||
| 05/03/2026 | 17:00:00 | 123 | 77 | 16:00:02 | 75 | 16:10:02 | 76 | 37 | 16:48:05 | 30 | 16:03:03 | 34.51 | 0 | |||||||
| 05/03/2026 | 18:00:00 | 123 | 77 | 17:09:04 | 75 | 18:00:00 | 75 | 43 | 17:55:01 | 34 | 17:14:02 | 42.54 | 0 | |||||||
| 05/03/2026 | 19:00:00 | 123 | 75 | 18:00:05 | 62 | 19:00:00 | 62 | 83 | 19:00:00 | 42 | 18:02:02 | 83.3 | 0 | |||||||
| 05/03/2026 | 20:00:00 | 123 | 62 | 19:00:01 | 57 | 20:00:00 | 57 | 92 | 20:00:00 | 83 | 19:00:01 | 92.1 | 0 | |||||||
| 05/03/2026 | 21:00:00 | 123 | 57 | 20:00:01 | 55 | 20:58:03 | 55 | 96 | 21:00:00 | 92 | 20:00:01 | 96.2 | 0 | |||||||
| 05/03/2026 | 22:00:00 | 123 | 55 | 21:10:04 | 54 | 22:00:00 | 54 | 97 | 21:52:04 | 96 | 21:22:00 | 97 | 0 | |||||||
| 05/03/2026 | 23:00:00 | 123 | 54 | 22:04:05 | 53 | 22:32:05 | 53 | 98 | 22:40:00 | 97 | 22:00:03 | 98.1 | 0 | |||||||
| 05/04/2026 | 0:00:00 | 124 | 53 | 23:00:01 | 52 | 23:43:00 | 53 | 98 | 23:53:05 | 98 | 23:38:00 | 98.2 | 0 | |||||||
| 05/04/2026 | 1:00:00 | 124 | 53 | 0:58:02 | 52 | 0:45:02 | 53 | 99 | 0:57:03 | 98 | 0:16:03 | 98.7 | 0 | |||||||
| 05/04/2026 | 2:00:00 | 124 | 53 | 1:58:04 | 53 | 1:10:01 | 53 | 99 | 1:04:05 | 98 | 2:00:00 | 97.8 | 0 | |||||||
| 05/04/2026 | 3:00:00 | 124 | 55 | 2:50:05 | 53 | 2:14:01 | 54 | 98 | 2:00:02 | 89 | 2:51:00 | 91.3 | 0 | |||||||
| 05/04/2026 | 4:00:00 | 124 | 54 | 3:00:01 | 53 | 3:59:05 | 53 | 96 | 4:00:00 | 91 | 3:00:01 | 96.3 | 0 | |||||||
| 05/04/2026 | 5:00:00 | 124 | 53 | 4:59:00 | 52 | 4:38:05 | 53 | 98 | 4:44:02 | 96 | 4:00:01 | 97.6 | 0 | |||||||
| 05/04/2026 | 6:00:00 | 124 | 57 | 5:59:04 | 52 | 5:19:05 | 57 | 98 | 5:33:03 | 93 | 6:00:00 | 92.9 | 0 | |||||||
| 05/04/2026 | 7:00:00 | 124 | 63 | 6:50:03 | 57 | 6:00:01 | 63 | 93 | 6:00:01 | 79 | 6:53:00 | 80.5 | 0 | |||||||
| 05/04/2026 | 8:00:00 | 124 | 69 | 8:00:00 | 63 | 7:01:02 | 69 | 81 | 7:00:01 | 68 | 8:00:00 | 68.27 | 0 | |||||||
| 05/04/2026 | 9:00:00 | 124 | 73 | 8:54:05 | 68 | 8:09:00 | 73 | 71 | 8:10:00 | 55 | 8:58:01 | 56.11 | 0 | |||||||
| 05/04/2026 | 10:00:00 | 124 | 76 | 9:50:01 | 73 | 9:00:01 | 76 | 59 | 9:01:02 | 50 | 9:39:04 | 53.71 | 0 | |||||||
| 05/04/2026 | 11:00:00 | 124 | 79 | 10:31:04 | 76 | 10:01:01 | 78 | 56 | 10:04:02 | 44 | 10:50:05 | 49.35 | 0 | |||||||
| 05/04/2026 | 12:00:00 | 124 | 82 | 11:59:03 | 78 | 11:09:01 | 82 | 49 | 11:00:01 | 38 | 11:54:03 | 40.98 | 0 | |||||||
| 05/04/2026 | 13:00:00 | 124 | 83 | 12:59:04 | 79 | 12:31:05 | 83 | 43 | 12:15:04 | 36 | 12:59:05 | 37.23 | 0 | |||||||
| 05/04/2026 | 14:00:00 | 124 | 83 | 13:49:04 | 80 | 13:11:02 | 81 | 42 | 13:02:01 | 35 | 13:51:04 | 36.37 | 0 | |||||||
| 05/04/2026 | 15:00:00 | 124 | 83 | 14:32:01 | 81 | 14:00:02 | 82 | 41 | 14:12:04 | 35 | 14:55:01 | 36.27 | 0 | |||||||
| 05/04/2026 | 16:00:00 | 124 | 82 | 15:27:05 | 81 | 15:36:05 | 81 | 39 | 15:37:05 | 35 | 15:30:01 | 37.02 | 0 | |||||||
| 05/04/2026 | 17:00:00 | 124 | 82 | 16:10:01 | 79 | 16:27:03 | 79 | 41 | 16:55:04 | 36 | 16:00:01 | 39.21 | 0 | |||||||
| 05/04/2026 | 18:00:00 | 124 | 80 | 17:00:01 | 77 | 17:59:04 | 77 | 45 | 17:56:05 | 39 | 17:00:01 | 43.14 | 0 | |||||||
| 05/04/2026 | 19:00:00 | 124 | 77 | 18:00:02 | 71 | 18:58:02 | 71 | 55 | 18:54:01 | 43 | 18:00:03 | 53.35 | 0 | |||||||
| 05/04/2026 | 20:00:00 | 124 | 71 | 19:00:02 | 66 | 19:59:03 | 66 | 66 | 19:57:04 | 53 | 19:01:00 | 64.72 | 0 | |||||||
| 05/04/2026 | 21:00:00 | 124 | 67 | 20:01:02 | 63 | 20:56:05 | 63 | 75 | 20:59:05 | 64 | 20:03:05 | 75.45 | 0 | |||||||
| 05/04/2026 | 22:00:00 | 124 | 64 | 21:36:04 | 63 | 21:20:03 | 63 | 76 | 21:17:02 | 72 | 21:32:00 | 75.71 | 0 | |||||||
| 05/04/2026 | 23:00:00 | 124 | 63 | 22:00:01 | 59 | 22:59:00 | 59 | 90 | 22:55:04 | 76 | 22:00:01 | 88.7 | 0 | |||||||
| 05/05/2026 | 0:00:00 | 125 | 59 | 23:00:01 | 57 | 23:56:02 | 57 | 93 | 23:16:04 | 88 | 23:01:04 | 92.1 | 0 | |||||||
| 05/05/2026 | 1:00:00 | 125 | 57 | 0:24:02 | 56 | 0:10:00 | 57 | 94 | 0:54:04 | 92 | 0:01:05 | 92.7 | 0 | |||||||
| 05/05/2026 | 2:00:00 | 125 | 57 | 1:57:04 | 55 | 1:17:00 | 57 | 96 | 1:36:00 | 91 | 2:00:00 | 90.7 | 0 | |||||||
| 05/05/2026 | 3:00:00 | 125 | 60 | 2:57:03 | 57 | 2:00:01 | 60 | 91 | 2:00:01 | 85 | 3:00:00 | 84.8 | 0 | |||||||
| 05/05/2026 | 4:00:00 | 125 | 63 | 4:00:00 | 59 | 3:17:01 | 63 | 86 | 3:22:01 | 79 | 3:47:04 | 78.72 | 0 | |||||||
| 05/05/2026 | 5:00:00 | 125 | 63 | 4:03:03 | 61 | 4:57:03 | 61 | 83 | 4:57:02 | 78 | 4:03:01 | 82.6 | 0 | |||||||
| 05/05/2026 | 6:00:00 | 125 | 63 | 5:57:01 | 61 | 5:00:01 | 63 | 83 | 5:00:05 | 78 | 5:56:02 | 78.53 | 0 | |||||||
| 05/05/2026 | 7:00:00 | 125 | 65 | 6:33:03 | 63 | 6:02:03 | 64 | 79 | 6:12:01 | 77 | 6:38:00 | 78.4 | 0 | |||||||
| 05/05/2026 | 8:00:00 | 125 | 64 | 7:00:02 | 63 | 7:55:03 | 63 | 86 | 7:59:02 | 78 | 7:03:00 | 86 | 0 | |||||||
| 05/05/2026 | 9:00:00 | 125 | 63 | 8:03:03 | 62 | 8:52:01 | 62 | 93 | 8:59:05 | 86 | 8:01:01 | 92.8 | 0.02 | |||||||
| 05/05/2026 | 10:00:00 | 125 | 63 | 9:57:03 | 62 | 9:02:00 | 63 | 94 | 9:59:05 | 91 | 9:29:04 | 93.5 | 0 | |||||||
| 05/05/2026 | 11:00:00 | 125 | 64 | 11:00:00 | 62 | 10:11:05 | 64 | 95 | 10:28:05 | 93 | 10:54:04 | 93.2 | 0.01 | |||||||
| 05/05/2026 | 12:00:00 | 125 | 67 | 11:57:01 | 64 | 11:01:01 | 67 | 93 | 11:00:01 | 87 | 11:55:05 | 87.4 | 0 | |||||||
| 05/05/2026 | 13:00:00 | 125 | 70 | 12:58:05 | 67 | 12:01:03 | 70 | 88 | 12:04:02 | 82 | 12:54:02 | 82.4 | 0 | |||||||
| 05/05/2026 | 14:00:00 | 125 | 70 | 13:37:04 | 69 | 13:13:02 | 69 | 85 | 13:55:00 | 82 | 13:02:02 | 84.7 | 0.01 | |||||||
| 05/05/2026 | 15:00:00 | 125 | 71 | 15:00:00 | 69 | 14:18:02 | 71 | 86 | 14:30:05 | 84 | 14:51:03 | 84.1 | 0 | |||||||
| 05/05/2026 | 16:00:00 | 125 | 73 | 15:51:04 | 71 | 15:00:02 | 73 | 84 | 15:00:01 | 81 | 15:17:03 | 82.1 | 0 | |||||||
| 05/05/2026 | 17:00:00 | 125 | 73 | 16:26:05 | 72 | 16:52:04 | 72 | 86 | 16:52:05 | 82 | 16:16:02 | 84.7 | 0 | |||||||
| 05/05/2026 | 18:00:00 | 125 | 73 | 17:17:05 | 72 | 17:58:05 | 72 | 86 | 17:53:01 | 84 | 17:17:03 | 85.3 | 0 | |||||||
| 05/05/2026 | 19:00:00 | 125 | 72 | 18:00:01 | 71 | 18:56:05 | 72 | 86 | 18:15:03 | 84 | 18:59:01 | 83.7 | 0 | |||||||
| 05/05/2026 | 20:00:00 | 125 | 72 | 19:00:03 | 71 | 19:55:05 | 71 | 84 | 19:35:05 | 84 | 19:49:00 | 84 | 0 | |||||||
| 05/05/2026 | 21:00:00 | 125 | 71 | 20:41:00 | 71 | 20:00:01 | 71 | 84 | 20:00:01 | 83 | 20:18:00 | 83.8 | 0 | |||||||
| 05/05/2026 | 22:00:00 | 125 | 71 | 21:06:03 | 71 | 21:36:05 | 71 | 86 | 21:37:01 | 83 | 21:06:02 | 84.5 | 0 | |||||||
| 05/05/2026 | 23:00:00 | 125 | 72 | 22:23:02 | 71 | 22:03:04 | 71 | 86 | 22:50:02 | 84 | 22:24:00 | 85 | 0 | |||||||
| 05/06/2026 | 0:00:00 | 126 | 73 | 23:54:04 | 71 | 23:03:01 | 73 | 86 | 23:35:01 | 84 | 23:54:03 | 84.7 | 0 | |||||||
| 05/06/2026 | 1:00:00 | 126 | 74 | 0:54:03 | 73 | 0:00:01 | 74 | 85 | 0:46:02 | 83 | 0:17:00 | 84.8 | 0 | |||||||
| 05/06/2026 | 2:00:00 | 126 | 75 | 1:28:04 | 66 | 2:00:00 | 66 | 92 | 2:00:00 | 82 | 1:35:05 | 92.3 | 0 | |||||||
| 05/06/2026 | 3:00:00 | 126 | 66 | 2:00:01 | 56 | 2:50:05 | 56 | 97 | 2:25:04 | 92 | 2:04:03 | 96.5 | 0.04 | |||||||
| 05/06/2026 | 4:00:00 | 126 | 57 | 3:33:01 | 55 | 3:57:01 | 55 | 98 | 3:59:04 | 97 | 3:01:03 | 98 | 0.04 | |||||||
| 05/06/2026 | 5:00:00 | 126 | 56 | 4:05:03 | 55 | 4:59:03 | 55 | 99 | 4:32:05 | 98 | 4:56:01 | 97.9 | 0.05 | |||||||
| 05/06/2026 | 6:00:00 | 126 | 55 | 5:57:03 | 55 | 5:12:03 | 55 | 98 | 5:10:00 | 97 | 6:00:00 | 97.3 | 0.04 | |||||||
| 05/06/2026 | 7:00:00 | 126 | 55 | 6:18:02 | 55 | 6:35:00 | 55 | 98 | 6:02:04 | 94 | 6:35:00 | 95.5 | 0.03 | |||||||
| 05/06/2026 | 8:00:00 | 126 | 55 | 7:43:04 | 54 | 7:19:03 | 55 | 97 | 7:27:00 | 95 | 7:47:03 | 95.8 | 0.02 | |||||||
| 05/06/2026 | 9:00:00 | 126 | 55 | 8:19:00 | 54 | 8:38:03 | 55 | 97 | 8:56:02 | 95 | 8:21:02 | 96.2 | 0.02 | |||||||
| 05/06/2026 | 10:00:00 | 126 | 56 | 9:32:00 | 54 | 9:22:01 | 55 | 97 | 9:06:01 | 95 | 9:36:05 | 94.6 | 0.01 | |||||||
| 05/06/2026 | 11:00:00 | 126 | 56 | 10:59:01 | 54 | 10:43:00 | 55 | 97 | 10:49:03 | 95 | 10:01:02 | 95.7 | 0 | |||||||
| 05/06/2026 | 12:00:00 | 126 | 56 | 11:03:02 | 55 | 12:00:00 | 55 | 97 | 11:03:00 | 94 | 11:20:05 | 95.1 | 0.01 | |||||||
| 05/06/2026 | 13:00:00 | 126 | 57 | 12:47:01 | 54 | 12:14:00 | 56 | 97 | 12:21:01 | 94 | 12:59:03 | 94.4 | 0.01 | |||||||
| 05/06/2026 | 14:00:00 | 126 | 56 | 13:09:05 | 55 | 13:59:02 | 55 | 96 | 13:44:04 | 93 | 13:16:00 | 96.1 | 0 | |||||||
| 05/06/2026 | 15:00:00 | 126 | 56 | 14:54:02 | 55 | 14:11:02 | 55 | 98 | 14:22:03 | 96 | 14:02:03 | 96.6 | 0.01 | |||||||
| 05/06/2026 | 16:00:00 | 126 | 57 | 15:19:05 | 55 | 15:01:04 | 57 | 97 | 15:03:04 | 93 | 15:38:02 | 94 | 0 | |||||||
| 05/06/2026 | 17:00:00 | 126 | 57 | 16:02:03 | 56 | 16:19:00 | 56 | 95 | 16:55:04 | 93 | 16:01:00 | 94.6 | 0 | |||||||
| 05/06/2026 | 18:00:00 | 126 | 57 | 17:10:01 | 56 | 17:57:01 | 56 | 95 | 17:51:01 | 93 | 17:23:02 | 94 | 0.01 | |||||||
| 05/06/2026 | 19:00:00 | 126 | 56 | 18:04:04 | 55 | 18:59:05 | 55 | 95 | 18:58:05 | 93 | 18:39:02 | 94.4 | 0 | |||||||
| 05/06/2026 | 20:00:00 | 126 | 55 | 19:10:04 | 55 | 19:33:04 | 55 | 95 | 19:04:03 | 94 | 19:47:01 | 94.4 | 0 | |||||||
| 05/06/2026 | 21:00:00 | 126 | 55 | 20:00:01 | 55 | 20:39:05 | 55 | 95 | 20:51:00 | 94 | 20:09:01 | 95.1 | 0.01 | |||||||
| 05/06/2026 | 22:00:00 | 126 | 55 | 21:11:02 | 55 | 21:56:02 | 55 | 95 | 21:16:00 | 94 | 21:59:00 | 94.5 | 0 | |||||||
| 05/06/2026 | 23:00:00 | 126 | 55 | 22:40:02 | 55 | 22:04:00 | 55 | 95 | 22:16:00 | 93 | 22:39:03 | 93.3 | 0 | |||||||
| 05/07/2026 | 0:00:00 | 127 | 55 | 23:06:04 | 55 | 23:52:03 | 55 | 95 | 23:57:01 | 93 | 23:26:01 | 94.2 | 0 | |||||||
| 05/07/2026 | 1:00:00 | 127 | 55 | 0:08:00 | 54 | 0:57:04 | 54 | 95 | 0:56:03 | 94 | 0:06:04 | 94.8 | 0.01 | |||||||
| 05/07/2026 | 2:00:00 | 127 | 54 | 1:15:00 | 54 | 1:58:05 | 54 | 96 | 1:59:05 | 95 | 1:13:00 | 96 | 0 | |||||||
| 05/07/2026 | 3:00:00 | 127 | 54 | 2:12:04 | 53 | 2:59:04 | 53 | 96 | 2:02:01 | 95 | 2:15:00 | 95.8 | 0 | |||||||
| 05/07/2026 | 4:00:00 | 127 | 53 | 3:00:01 | 52 | 3:54:00 | 52 | 96 | 3:07:00 | 95 | 3:59:05 | 94.6 | 0 | |||||||
| 05/07/2026 | 5:00:00 | 127 | 52 | 4:00:01 | 51 | 5:00:00 | 51 | 96 | 4:32:04 | 95 | 4:00:03 | 95.7 | 0 | |||||||
| 05/07/2026 | 6:00:00 | 127 | 53 | 5:51:02 | 51 | 5:26:02 | 53 | 96 | 5:19:00 | 92 | 5:55:04 | 92.7 | 0 | |||||||
| Average | 62.29 | 59.74 | 60.95 | 78.48 | 70.91 | 74.72 | 0 | 0 | 0 | 0 | 0 | 0 | 0 | |||||||
| Total | 0.58 |